DLH16N LFML-EDDF
Flight info
| Callsign | DLH16N |
|---|---|
| Flight time | 1h 17m |
| Altitude | 36000 |
| Route | ETREK DCT LUXAN DCT LTP DCT SOPLO DCT OMASI DCT KINNI DCT SOSAL DCT KORED DCT BERSU N871 DITON/N0414F330 DCT LADOL/N0427F360 T163 EMPAX EMPAX5B |
| Aircraft | A319/M-SDE2E3FGILORWXYZ/HB1 |
Departure
| Time | 2026-05-05 16:30 |
|---|---|
| Airport | Marseille Provence Airport (LFML) |
Arrival
| Time | 2026-05-05 17:47 |
|---|---|
| Airport | Frankfurt Main Airport (EDDF) |
| Time | Latitude | Longitude | Altitude | Speed | Heading |
|---|---|---|---|---|---|
| 2026-05-05 15:53 | 43.43864 | 5.22313 | 37 ft | 0 kts | 73° |
| 2026-05-05 16:20 | 43.43864 | 5.22312 | 37 ft | 1 kts | 74° |
| 2026-05-05 16:20 | 43.43841 | 5.22253 | 35 ft | 4 kts | 41° |
| 2026-05-05 16:21 | 43.43795 | 5.22229 | 35 ft | 2 kts | 344° |
| 2026-05-05 16:22 | 43.43794 | 5.22230 | 36 ft | 0 kts | 344° |
| 2026-05-05 16:23 | 43.43816 | 5.22221 | 37 ft | 5 kts | 343° |
| 2026-05-05 16:24 | 43.43860 | 5.22193 | 36 ft | 8 kts | 316° |
| 2026-05-05 16:24 | 43.43854 | 5.22126 | 35 ft | 9 kts | 229° |
| 2026-05-05 16:24 | 43.43790 | 5.21971 | 36 ft | 11 kts | 311° |
| 2026-05-05 16:25 | 43.43858 | 5.21878 | 37 ft | 17 kts | 314° |
| 2026-05-05 16:25 | 43.43978 | 5.21643 | 37 ft | 11 kts | 250° |
| 2026-05-05 16:25 | 43.43926 | 5.21563 | 37 ft | 12 kts | 228° |
| 2026-05-05 16:26 | 43.44020 | 5.21345 | 37 ft | 19 kts | 314° |
| 2026-05-05 16:26 | 43.44219 | 5.21064 | 37 ft | 21 kts | 314° |
| 2026-05-05 16:27 | 43.44302 | 5.20900 | 37 ft | 21 kts | 298° |
| 2026-05-05 16:27 | 43.44396 | 5.20741 | 37 ft | 22 kts | 314° |
| 2026-05-05 16:27 | 43.44499 | 5.20595 | 37 ft | 22 kts | 314° |
| 2026-05-05 16:27 | 43.44605 | 5.20444 | 37 ft | 22 kts | 314° |
| 2026-05-05 16:28 | 43.44712 | 5.20291 | 37 ft | 23 kts | 314° |
| 2026-05-05 16:28 | 43.44822 | 5.20135 | 37 ft | 23 kts | 314° |
| 2026-05-05 16:28 | 43.44933 | 5.19977 | 37 ft | 22 kts | 314° |
| 2026-05-05 16:28 | 43.44975 | 5.19839 | 36 ft | 15 kts | 243° |
| 2026-05-05 16:29 | 43.44906 | 5.19747 | 35 ft | 6 kts | 210° |
| 2026-05-05 16:29 | 43.44882 | 5.19778 | 35 ft | 7 kts | 133° |
| 2026-05-05 16:29 | 43.44720 | 5.20012 | 35 ft | 72 kts | 134° |
| 2026-05-05 16:29 | 43.44203 | 5.20745 | 35 ft | 139 kts | 134° |
| 2026-05-05 16:30 | 43.43461 | 5.21803 | 460 ft | 155 kts | 137° |
| 2026-05-05 16:30 | 43.42702 | 5.22855 | 1220 ft | 156 kts | 136° |
| 2026-05-05 16:30 | 43.42085 | 5.24150 | 1713 ft | 178 kts | 104° |
| 2026-05-05 16:30 | 43.42379 | 5.25937 | 2072 ft | 215 kts | 59° |
| 2026-05-05 16:31 | 43.43440 | 5.27448 | 2985 ft | 223 kts | 41° |
| 2026-05-05 16:31 | 43.44872 | 5.28354 | 3928 ft | 234 kts | 15° |
| 2026-05-05 16:31 | 43.46519 | 5.28424 | 4824 ft | 242 kts | 349° |
| 2026-05-05 16:31 | 43.48171 | 5.27759 | 5524 ft | 258 kts | 340° |
| 2026-05-05 16:32 | 43.49958 | 5.26963 | 6048 ft | 281 kts | 340° |
| 2026-05-05 16:32 | 43.51855 | 5.26125 | 6852 ft | 290 kts | 340° |
| 2026-05-05 16:32 | 43.53790 | 5.25280 | 7825 ft | 293 kts | 339° |
| 2026-05-05 16:32 | 43.55744 | 5.24430 | 8774 ft | 296 kts | 339° |
| 2026-05-05 16:33 | 43.57723 | 5.23568 | 9754 ft | 300 kts | 339° |
| 2026-05-05 16:33 | 43.59748 | 5.22684 | 10384 ft | 315 kts | 339° |
| 2026-05-05 16:33 | 43.61911 | 5.21734 | 10838 ft | 334 kts | 339° |
| 2026-05-05 16:33 | 43.64151 | 5.20752 | 11580 ft | 342 kts | 339° |
| 2026-05-05 16:34 | 43.66436 | 5.19749 | 12394 ft | 347 kts | 339° |
| 2026-05-05 16:34 | 43.68756 | 5.18729 | 13192 ft | 353 kts | 339° |
| 2026-05-05 16:34 | 43.71110 | 5.17691 | 13944 ft | 358 kts | 339° |
| 2026-05-05 16:34 | 43.73487 | 5.16614 | 14651 ft | 361 kts | 338° |
| 2026-05-05 16:35 | 43.75881 | 5.15490 | 15364 ft | 365 kts | 337° |
| 2026-05-05 16:35 | 43.78298 | 5.14334 | 16074 ft | 369 kts | 337° |
| 2026-05-05 16:35 | 43.80740 | 5.13160 | 16785 ft | 374 kts | 336° |
| 2026-05-05 16:35 | 43.83205 | 5.11973 | 17478 ft | 378 kts | 337° |
| 2026-05-05 16:36 | 43.85449 | 5.10894 | 18103 ft | 382 kts | 337° |
| 2026-05-05 16:36 | 43.87978 | 5.09722 | 18710 ft | 387 kts | 340° |
| 2026-05-05 16:36 | 43.90643 | 5.08991 | 19330 ft | 393 kts | 347° |
| 2026-05-05 16:36 | 43.93352 | 5.08389 | 19962 ft | 396 kts | 347° |
| 2026-05-05 16:37 | 43.96081 | 5.07771 | 20598 ft | 399 kts | 347° |
| 2026-05-05 16:37 | 43.98832 | 5.07143 | 21227 ft | 402 kts | 347° |
| 2026-05-05 16:37 | 44.01595 | 5.06507 | 21848 ft | 405 kts | 346° |
| 2026-05-05 16:37 | 44.04392 | 5.05861 | 22462 ft | 408 kts | 346° |
| 2026-05-05 16:38 | 44.07197 | 5.05211 | 23077 ft | 411 kts | 346° |
| 2026-05-05 16:38 | 44.09998 | 5.04561 | 23644 ft | 414 kts | 346° |
| 2026-05-05 16:38 | 44.12885 | 5.03898 | 24141 ft | 418 kts | 346° |
| 2026-05-05 16:38 | 44.15764 | 5.03237 | 24596 ft | 421 kts | 346° |
| 2026-05-05 16:39 | 44.18629 | 5.02578 | 25047 ft | 424 kts | 346° |
| 2026-05-05 16:39 | 44.21555 | 5.01902 | 25510 ft | 428 kts | 346° |
| 2026-05-05 16:39 | 44.24505 | 5.01221 | 25951 ft | 431 kts | 346° |
| 2026-05-05 16:39 | 44.27479 | 5.00535 | 26392 ft | 435 kts | 346° |
| 2026-05-05 16:40 | 44.30476 | 4.99844 | 26817 ft | 438 kts | 346° |
| 2026-05-05 16:40 | 44.33497 | 4.99147 | 27267 ft | 442 kts | 346° |
| 2026-05-05 16:40 | 44.36541 | 4.98441 | 27720 ft | 445 kts | 346° |
| 2026-05-05 16:40 | 44.39608 | 4.97728 | 28151 ft | 448 kts | 346° |
| 2026-05-05 16:41 | 44.42690 | 4.97012 | 28572 ft | 452 kts | 346° |
| 2026-05-05 16:41 | 44.45801 | 4.96290 | 28994 ft | 455 kts | 345° |
| 2026-05-05 16:41 | 44.48933 | 4.95562 | 29411 ft | 458 kts | 345° |
| 2026-05-05 16:41 | 44.52086 | 4.94825 | 29813 ft | 461 kts | 345° |
| 2026-05-05 16:42 | 44.55258 | 4.94081 | 30176 ft | 464 kts | 345° |
| 2026-05-05 16:42 | 44.58449 | 4.93336 | 30515 ft | 466 kts | 345° |
| 2026-05-05 16:42 | 44.61657 | 4.92589 | 30859 ft | 468 kts | 345° |
| 2026-05-05 16:42 | 44.64881 | 4.91839 | 31188 ft | 471 kts | 345° |
| 2026-05-05 16:43 | 44.68121 | 4.91089 | 31537 ft | 473 kts | 345° |
| 2026-05-05 16:43 | 44.71355 | 4.90288 | 31972 ft | 469 kts | 341° |
| 2026-05-05 16:43 | 44.74454 | 4.88991 | 32426 ft | 461 kts | 332° |
| 2026-05-05 16:43 | 44.77416 | 4.87315 | 32909 ft | 458 kts | 331° |
| 2026-05-05 16:44 | 44.80372 | 4.85639 | 33416 ft | 457 kts | 331° |
| 2026-05-05 16:44 | 44.83323 | 4.83975 | 33923 ft | 456 kts | 331° |
| 2026-05-05 16:44 | 44.86268 | 4.82322 | 34349 ft | 455 kts | 331° |
| 2026-05-05 16:44 | 44.89207 | 4.80673 | 34722 ft | 454 kts | 332° |
| 2026-05-05 16:45 | 44.92137 | 4.79022 | 35075 ft | 453 kts | 332° |
| 2026-05-05 16:45 | 44.95055 | 4.77372 | 35426 ft | 452 kts | 332° |
| 2026-05-05 16:45 | 44.97975 | 4.75718 | 35775 ft | 452 kts | 332° |
| 2026-05-05 16:45 | 45.00894 | 4.74060 | 35877 ft | 450 kts | 332° |
| 2026-05-05 16:46 | 45.06640 | 4.70794 | 35900 ft | 442 kts | 332° |
| 2026-05-05 16:46 | 45.12476 | 4.68167 | 35894 ft | 453 kts | 350° |
| 2026-05-05 16:47 | 45.15695 | 4.68378 | 35896 ft | 464 kts | 8° |
| 2026-05-05 16:47 | 45.18759 | 4.69876 | 35888 ft | 471 kts | 26° |
| 2026-05-05 16:47 | 45.21399 | 4.72525 | 35893 ft | 474 kts | 44° |
| 2026-05-05 16:47 | 45.23465 | 4.76216 | 35884 ft | 472 kts | 62° |
| 2026-05-05 16:48 | 45.26608 | 4.84358 | 35888 ft | 474 kts | 63° |
| 2026-05-05 16:48 | 45.29732 | 4.92662 | 35896 ft | 474 kts | 63° |
| 2026-05-05 16:49 | 45.32810 | 5.00865 | 35889 ft | 473 kts | 63° |
| 2026-05-05 16:49 | 45.35935 | 5.09175 | 35889 ft | 473 kts | 63° |
| 2026-05-05 16:50 | 45.39017 | 5.17379 | 35883 ft | 473 kts | 63° |
| 2026-05-05 16:50 | 45.42112 | 5.25642 | 35880 ft | 473 kts | 63° |
| 2026-05-05 16:51 | 45.45192 | 5.33917 | 35885 ft | 473 kts | 63° |
| 2026-05-05 16:51 | 45.48427 | 5.42130 | 35883 ft | 474 kts | 55° |
| 2026-05-05 16:52 | 45.52906 | 5.48973 | 35884 ft | 473 kts | 40° |
| 2026-05-05 16:52 | 45.57813 | 5.55218 | 35877 ft | 473 kts | 41° |
| 2026-05-05 16:53 | 45.62702 | 5.61503 | 35881 ft | 473 kts | 41° |
| 2026-05-05 16:53 | 45.67561 | 5.67743 | 35878 ft | 472 kts | 41° |
| 2026-05-05 16:54 | 45.72444 | 5.74022 | 35883 ft | 472 kts | 41° |
| 2026-05-05 16:54 | 45.77330 | 5.80309 | 35883 ft | 472 kts | 41° |
| 2026-05-05 16:55 | 45.82218 | 5.86589 | 35893 ft | 472 kts | 41° |
| 2026-05-05 16:55 | 45.87107 | 5.92873 | 35890 ft | 471 kts | 41° |
| 2026-05-05 16:56 | 45.91978 | 5.99165 | 35893 ft | 471 kts | 41° |
| 2026-05-05 16:56 | 45.96837 | 6.05471 | 35892 ft | 470 kts | 41° |
| 2026-05-05 16:57 | 46.01692 | 6.11776 | 35898 ft | 470 kts | 41° |
| 2026-05-05 16:57 | 46.06526 | 6.18078 | 35893 ft | 469 kts | 41° |
| 2026-05-05 16:58 | 46.11295 | 6.24402 | 35899 ft | 469 kts | 43° |
| 2026-05-05 16:58 | 46.15943 | 6.30995 | 35895 ft | 468 kts | 45° |
| 2026-05-05 16:59 | 46.20560 | 6.37704 | 35896 ft | 468 kts | 45° |
| 2026-05-05 16:59 | 46.25164 | 6.44340 | 35895 ft | 467 kts | 44° |
| 2026-05-05 17:00 | 46.29790 | 6.50935 | 35896 ft | 467 kts | 44° |
| 2026-05-05 17:00 | 46.34403 | 6.57527 | 35898 ft | 466 kts | 44° |
| 2026-05-05 17:01 | 46.39005 | 6.64141 | 35900 ft | 466 kts | 44° |
| 2026-05-05 17:01 | 46.43599 | 6.70766 | 35892 ft | 466 kts | 44° |
| 2026-05-05 17:02 | 46.48189 | 6.77398 | 35897 ft | 466 kts | 44° |
| 2026-05-05 17:02 | 46.52777 | 6.84036 | 35882 ft | 465 kts | 44° |
| 2026-05-05 17:03 | 46.57165 | 6.90852 | 35889 ft | 465 kts | 51° |
| 2026-05-05 17:03 | 46.61223 | 6.98174 | 35903 ft | 465 kts | 51° |
| 2026-05-05 17:04 | 46.65285 | 7.05491 | 35905 ft | 464 kts | 51° |
| 2026-05-05 17:04 | 46.69336 | 7.12803 | 35906 ft | 464 kts | 51° |
| 2026-05-05 17:05 | 46.73375 | 7.20117 | 35901 ft | 463 kts | 51° |
| 2026-05-05 17:05 | 46.77409 | 7.27450 | 35899 ft | 463 kts | 51° |
| 2026-05-05 17:06 | 46.81437 | 7.34790 | 35897 ft | 463 kts | 51° |
| 2026-05-05 17:06 | 46.85450 | 7.42122 | 35905 ft | 462 kts | 51° |
| 2026-05-05 17:07 | 46.89452 | 7.49459 | 35899 ft | 461 kts | 51° |
| 2026-05-05 17:07 | 46.93447 | 7.56799 | 35905 ft | 461 kts | 52° |
| 2026-05-05 17:08 | 46.97426 | 7.64152 | 35898 ft | 460 kts | 52° |
| 2026-05-05 17:08 | 47.01395 | 7.71508 | 35899 ft | 460 kts | 52° |
| 2026-05-05 17:09 | 47.05354 | 7.78849 | 35894 ft | 459 kts | 52° |
| 2026-05-05 17:09 | 47.09280 | 7.86146 | 35893 ft | 458 kts | 52° |
| 2026-05-05 17:10 | 47.13217 | 7.93499 | 35894 ft | 457 kts | 54° |
| 2026-05-05 17:10 | 47.16647 | 8.01336 | 35898 ft | 456 kts | 59° |
| 2026-05-05 17:11 | 47.19464 | 8.07956 | 35900 ft | 455 kts | 59° |
| 2026-05-05 17:11 | 47.22801 | 8.15805 | 35907 ft | 455 kts | 59° |
| 2026-05-05 17:12 | 47.26174 | 8.23745 | 35897 ft | 454 kts | 59° |
| 2026-05-05 17:12 | 47.29903 | 8.31220 | 35894 ft | 454 kts | 45° |
| 2026-05-05 17:13 | 47.34977 | 8.36676 | 35887 ft | 452 kts | 25° |
| 2026-05-05 17:13 | 47.40588 | 8.40620 | 35896 ft | 452 kts | 24° |
| 2026-05-05 17:14 | 47.46322 | 8.44685 | 35892 ft | 452 kts | 24° |
| 2026-05-05 17:14 | 47.51986 | 8.48721 | 35891 ft | 452 kts | 24° |
| 2026-05-05 17:15 | 47.57655 | 8.52764 | 35886 ft | 452 kts | 24° |
| 2026-05-05 17:15 | 47.63289 | 8.56781 | 35885 ft | 452 kts | 25° |
| 2026-05-05 17:16 | 47.68958 | 8.60825 | 35876 ft | 452 kts | 25° |
| 2026-05-05 17:16 | 47.74664 | 8.64906 | 35869 ft | 452 kts | 25° |
| 2026-05-05 17:17 | 47.80287 | 8.68955 | 35859 ft | 452 kts | 25° |
| 2026-05-05 17:17 | 47.85952 | 8.73039 | 35856 ft | 452 kts | 25° |
| 2026-05-05 17:18 | 47.91606 | 8.77114 | 35853 ft | 452 kts | 25° |
| 2026-05-05 17:18 | 47.97237 | 8.81180 | 35853 ft | 451 kts | 25° |
| 2026-05-05 17:19 | 48.02874 | 8.85278 | 35848 ft | 451 kts | 25° |
| 2026-05-05 17:19 | 48.08514 | 8.89382 | 35852 ft | 451 kts | 25° |
| 2026-05-05 17:20 | 48.14179 | 8.93484 | 35815 ft | 453 kts | 22° |
| 2026-05-05 17:20 | 48.17153 | 8.95056 | 35573 ft | 455 kts | 14° |
| 2026-05-05 17:20 | 48.20291 | 8.95970 | 34332 ft | 467 kts | 3° |
| 2026-05-05 17:21 | 48.23543 | 8.96401 | 33559 ft | 469 kts | 3° |
| 2026-05-05 17:21 | 48.26785 | 8.96846 | 32905 ft | 465 kts | 4° |
| 2026-05-05 17:21 | 48.29992 | 8.97310 | 32267 ft | 462 kts | 4° |
| 2026-05-05 17:22 | 48.36307 | 8.98289 | 31140 ft | 455 kts | 4° |
| 2026-05-05 17:22 | 48.39435 | 8.98783 | 30651 ft | 450 kts | 4° |
| 2026-05-05 17:22 | 48.42532 | 8.99264 | 30176 ft | 445 kts | 4° |
| 2026-05-05 17:22 | 48.45600 | 8.99735 | 29673 ft | 441 kts | 4° |
| 2026-05-05 17:23 | 48.48629 | 9.00197 | 29222 ft | 434 kts | 4° |
| 2026-05-05 17:23 | 48.51607 | 9.00654 | 28781 ft | 428 kts | 4° |
| 2026-05-05 17:23 | 48.54547 | 9.01103 | 28363 ft | 422 kts | 4° |
| 2026-05-05 17:23 | 48.57458 | 9.01546 | 27954 ft | 417 kts | 4° |
| 2026-05-05 17:24 | 48.60370 | 9.01988 | 27520 ft | 413 kts | 4° |
| 2026-05-05 17:24 | 48.63177 | 9.02423 | 27104 ft | 409 kts | 5° |
| 2026-05-05 17:24 | 48.66030 | 9.02972 | 26676 ft | 406 kts | 6° |
| 2026-05-05 17:24 | 48.68781 | 9.03610 | 26255 ft | 404 kts | 8° |
| 2026-05-05 17:25 | 48.71542 | 9.04311 | 25819 ft | 402 kts | 8° |
| 2026-05-05 17:25 | 48.73401 | 9.04793 | 25682 ft | 400 kts | 10° |
| 2026-05-05 17:25 | 48.77051 | 9.05733 | 24904 ft | 402 kts | 9° |
| 2026-05-05 17:25 | 48.79805 | 9.06423 | 24442 ft | 400 kts | 9° |
| 2026-05-05 17:26 | 48.82585 | 9.07098 | 23966 ft | 398 kts | 9° |
| 2026-05-05 17:26 | 48.85274 | 9.07741 | 23499 ft | 397 kts | 8° |
| 2026-05-05 17:26 | 48.87998 | 9.08386 | 22975 ft | 395 kts | 8° |
| 2026-05-05 17:26 | 48.90706 | 9.08931 | 22516 ft | 391 kts | 6° |
| 2026-05-05 17:27 | 48.93432 | 9.09349 | 22052 ft | 387 kts | 5° |
| 2026-05-05 17:27 | 48.96099 | 9.09689 | 21604 ft | 383 kts | 4° |
| 2026-05-05 17:27 | 48.98709 | 9.10005 | 21170 ft | 379 kts | 4° |
| 2026-05-05 17:27 | 49.01328 | 9.10328 | 20734 ft | 376 kts | 4° |
| 2026-05-05 17:28 | 49.03928 | 9.10665 | 20263 ft | 374 kts | 4° |
| 2026-05-05 17:28 | 49.06510 | 9.11017 | 19800 ft | 372 kts | 4° |
| 2026-05-05 17:28 | 49.09117 | 9.11383 | 19329 ft | 370 kts | 4° |
| 2026-05-05 17:28 | 49.11644 | 9.11746 | 18873 ft | 369 kts | 4° |
| 2026-05-05 17:29 | 49.14195 | 9.12119 | 18416 ft | 368 kts | 4° |
| 2026-05-05 17:29 | 49.16735 | 9.12494 | 17933 ft | 367 kts | 4° |
| 2026-05-05 17:29 | 49.19268 | 9.12867 | 17458 ft | 365 kts | 4° |
| 2026-05-05 17:29 | 49.21784 | 9.13235 | 17006 ft | 362 kts | 4° |
| 2026-05-05 17:30 | 49.24285 | 9.13593 | 16549 ft | 360 kts | 3° |
| 2026-05-05 17:30 | 49.26772 | 9.13944 | 16119 ft | 358 kts | 3° |
| 2026-05-05 17:30 | 49.29229 | 9.14458 | 15681 ft | 357 kts | 11° |
| 2026-05-05 17:30 | 49.31644 | 9.15307 | 15325 ft | 354 kts | 11° |
| 2026-05-05 17:31 | 49.34031 | 9.16158 | 14922 ft | 351 kts | 11° |
| 2026-05-05 17:31 | 49.36404 | 9.17005 | 14509 ft | 350 kts | 11° |
| 2026-05-05 17:31 | 49.38769 | 9.17846 | 14106 ft | 348 kts | 11° |
| 2026-05-05 17:31 | 49.41119 | 9.18679 | 13718 ft | 346 kts | 11° |
| 2026-05-05 17:32 | 49.43454 | 9.19510 | 13295 ft | 344 kts | 11° |
| 2026-05-05 17:32 | 49.45775 | 9.20334 | 12849 ft | 341 kts | 11° |
| 2026-05-05 17:32 | 49.48085 | 9.21153 | 12398 ft | 339 kts | 11° |
| 2026-05-05 17:32 | 49.50376 | 9.21970 | 11969 ft | 337 kts | 11° |
| 2026-05-05 17:33 | 49.52651 | 9.22782 | 11521 ft | 335 kts | 11° |
| 2026-05-05 17:33 | 49.54910 | 9.23587 | 11093 ft | 332 kts | 11° |
| 2026-05-05 17:33 | 49.57157 | 9.24388 | 10652 ft | 330 kts | 11° |
| 2026-05-05 17:33 | 49.59371 | 9.25177 | 10412 ft | 322 kts | 12° |
| 2026-05-05 17:34 | 49.61512 | 9.25943 | 10318 ft | 311 kts | 12° |
| 2026-05-05 17:34 | 49.63602 | 9.26691 | 10199 ft | 307 kts | 12° |
| 2026-05-05 17:34 | 49.65650 | 9.27428 | 10084 ft | 306 kts | 12° |
| 2026-05-05 17:34 | 49.67720 | 9.28174 | 9960 ft | 305 kts | 12° |
| 2026-05-05 17:35 | 49.69785 | 9.28920 | 9831 ft | 304 kts | 12° |
| 2026-05-05 17:35 | 49.71843 | 9.29661 | 9819 ft | 304 kts | 12° |
| 2026-05-05 17:35 | 49.73901 | 9.30396 | 9826 ft | 303 kts | 12° |
| 2026-05-05 17:35 | 49.75954 | 9.31132 | 9827 ft | 303 kts | 12° |
| 2026-05-05 17:36 | 49.78026 | 9.31672 | 9829 ft | 302 kts | 358° |
| 2026-05-05 17:36 | 49.80087 | 9.31185 | 9827 ft | 300 kts | 345° |
| 2026-05-05 17:36 | 49.82112 | 9.30427 | 9819 ft | 299 kts | 344° |
| 2026-05-05 17:36 | 49.84120 | 9.29649 | 9476 ft | 297 kts | 344° |
| 2026-05-05 17:37 | 49.86116 | 9.28858 | 9068 ft | 295 kts | 343° |
| 2026-05-05 17:37 | 49.87460 | 9.28321 | 8800 ft | 294 kts | 344° |
| 2026-05-05 17:37 | 49.90073 | 9.27275 | 8331 ft | 292 kts | 344° |
| 2026-05-05 17:37 | 49.92024 | 9.26441 | 7945 ft | 289 kts | 339° |
| 2026-05-05 17:38 | 49.93699 | 9.24802 | 7576 ft | 285 kts | 317° |
| 2026-05-05 17:38 | 49.95146 | 9.22709 | 7296 ft | 283 kts | 314° |
| 2026-05-05 17:38 | 49.96566 | 9.20606 | 7015 ft | 281 kts | 314° |
| 2026-05-05 17:38 | 49.97980 | 9.18508 | 6633 ft | 280 kts | 314° |
| 2026-05-05 17:39 | 49.99384 | 9.16423 | 6280 ft | 278 kts | 314° |
| 2026-05-05 17:39 | 50.00777 | 9.14344 | 5911 ft | 276 kts | 314° |
| 2026-05-05 17:39 | 50.02161 | 9.12277 | 5545 ft | 274 kts | 314° |
| 2026-05-05 17:39 | 50.03531 | 9.10228 | 5199 ft | 272 kts | 314° |
| 2026-05-05 17:40 | 50.04888 | 9.08196 | 4991 ft | 270 kts | 314° |
| 2026-05-05 17:40 | 50.06168 | 9.06272 | 4900 ft | 269 kts | 314° |
| 2026-05-05 17:40 | 50.07507 | 9.04253 | 4509 ft | 268 kts | 314° |
| 2026-05-05 17:40 | 50.08831 | 9.02248 | 4237 ft | 262 kts | 314° |
| 2026-05-05 17:41 | 50.10100 | 9.00332 | 4044 ft | 253 kts | 314° |
| 2026-05-05 17:41 | 50.11322 | 8.98456 | 3987 ft | 238 kts | 310° |
| 2026-05-05 17:41 | 50.12096 | 8.96322 | 3990 ft | 220 kts | 284° |
| 2026-05-05 17:41 | 50.12236 | 8.93990 | 3997 ft | 216 kts | 261° |
| 2026-05-05 17:42 | 50.11826 | 8.91752 | 3997 ft | 215 kts | 249° |
| 2026-05-05 17:42 | 50.11328 | 8.89636 | 3996 ft | 201 kts | 249° |
| 2026-05-05 17:42 | 50.10857 | 8.87632 | 3999 ft | 196 kts | 249° |
| 2026-05-05 17:42 | 50.10394 | 8.85660 | 3936 ft | 191 kts | 249° |
| 2026-05-05 17:43 | 50.09940 | 8.83732 | 3739 ft | 188 kts | 249° |
| 2026-05-05 17:43 | 50.09491 | 8.81823 | 3508 ft | 188 kts | 249° |
| 2026-05-05 17:43 | 50.09046 | 8.79938 | 3279 ft | 184 kts | 249° |
| 2026-05-05 17:43 | 50.08609 | 8.78082 | 3023 ft | 181 kts | 249° |
| 2026-05-05 17:44 | 50.08179 | 8.76262 | 2790 ft | 177 kts | 249° |
| 2026-05-05 17:44 | 50.07757 | 8.74475 | 2547 ft | 174 kts | 250° |
| 2026-05-05 17:44 | 50.07342 | 8.72722 | 2319 ft | 171 kts | 250° |
| 2026-05-05 17:44 | 50.06937 | 8.71013 | 2094 ft | 164 kts | 250° |
| 2026-05-05 17:45 | 50.06553 | 8.69390 | 1881 ft | 154 kts | 250° |
| 2026-05-05 17:45 | 50.06202 | 8.67910 | 1688 ft | 138 kts | 250° |
| 2026-05-05 17:45 | 50.05882 | 8.66559 | 1501 ft | 129 kts | 250° |
| 2026-05-05 17:45 | 50.05572 | 8.65253 | 1321 ft | 127 kts | 249° |
| 2026-05-05 17:46 | 50.05266 | 8.63964 | 1134 ft | 127 kts | 249° |
| 2026-05-05 17:46 | 50.04963 | 8.62681 | 965 ft | 126 kts | 250° |
| 2026-05-05 17:46 | 50.04662 | 8.61405 | 787 ft | 126 kts | 250° |
| 2026-05-05 17:46 | 50.04357 | 8.60126 | 614 ft | 126 kts | 249° |
| 2026-05-05 17:47 | 50.04054 | 8.58853 | 433 ft | 125 kts | 250° |
| 2026-05-05 17:47 | 50.03763 | 8.57629 | 361 ft | 110 kts | 249° |
| 2026-05-05 17:47 | 50.03553 | 8.56759 | 350 ft | 64 kts | 250° |
| 2026-05-05 17:47 | 50.03444 | 8.56259 | 354 ft | 38 kts | 266° |
| 2026-05-05 17:48 | 50.03452 | 8.55918 | 349 ft | 25 kts | 279° |
| 2026-05-05 17:48 | 50.03492 | 8.55709 | 349 ft | 16 kts | 325° |
| 2026-05-05 17:48 | 50.03566 | 8.55772 | 352 ft | 13 kts | 68° |
| 2026-05-05 17:48 | 50.03597 | 8.55905 | 355 ft | 14 kts | 72° |
| 2026-05-05 17:49 | 50.03637 | 8.56078 | 355 ft | 20 kts | 70° |
| 2026-05-05 17:49 | 50.03694 | 8.56318 | 357 ft | 27 kts | 70° |
| 2026-05-05 17:49 | 50.03762 | 8.56602 | 353 ft | 28 kts | 70° |
| 2026-05-05 17:49 | 50.03830 | 8.56887 | 359 ft | 28 kts | 70° |
| 2026-05-05 17:50 | 50.03898 | 8.57168 | 362 ft | 27 kts | 69° |
| 2026-05-05 17:50 | 50.03961 | 8.57434 | 366 ft | 27 kts | 70° |
| 2026-05-05 17:50 | 50.04029 | 8.57719 | 372 ft | 28 kts | 70° |
| 2026-05-05 17:50 | 50.04098 | 8.58007 | 370 ft | 28 kts | 69° |
| 2026-05-05 17:51 | 50.04167 | 8.58294 | 369 ft | 28 kts | 69° |
| 2026-05-05 17:51 | 50.04237 | 8.58582 | 370 ft | 29 kts | 69° |
| 2026-05-05 17:51 | 50.04305 | 8.58867 | 374 ft | 27 kts | 69° |
| 2026-05-05 17:51 | 50.04370 | 8.59137 | 377 ft | 27 kts | 70° |
| 2026-05-05 17:52 | 50.04432 | 8.59395 | 376 ft | 19 kts | 70° |
| 2026-05-05 17:52 | 50.04521 | 8.59471 | 374 ft | 16 kts | 357° |
| 2026-05-05 17:52 | 50.04561 | 8.59468 | 373 ft | 0 kts | 356° |
| 2026-05-05 17:53 | 50.04563 | 8.59468 | 373 ft | 1 kts | 356° |
| 2026-05-05 17:53 | 50.04593 | 8.59465 | 373 ft | 7 kts | 357° |
| 2026-05-05 17:53 | 50.04648 | 8.59459 | 372 ft | 8 kts | 353° |
| 2026-05-05 17:54 | 50.04708 | 8.59438 | 372 ft | 9 kts | 343° |
| 2026-05-05 17:54 | 50.04767 | 8.59403 | 372 ft | 10 kts | 339° |
| 2026-05-05 17:54 | 50.04834 | 8.59355 | 370 ft | 11 kts | 311° |
| 2026-05-05 17:54 | 50.04842 | 8.59256 | 368 ft | 8 kts | 259° |
| 2026-05-05 17:55 | 50.04839 | 8.59224 | 369 ft | 1 kts | 297° |
| 2026-05-05 17:55 | 50.04850 | 8.59222 | 372 ft | 3 kts | 347° |
| 2026-05-05 17:55 | 50.04879 | 8.59210 | 370 ft | 5 kts | 340° |
| 2026-05-05 17:55 | 50.04916 | 8.59188 | 365 ft | 4 kts | 340° |
| 2026-05-05 17:56 | 50.04921 | 8.59185 | 367 ft | 0 kts | 340° |